createdAt,value
2023-06-14T00:00:13.522Z,16.19
2023-06-14T00:00:36.490Z,16.20
2023-06-14T00:01:10.651Z,16.20
2023-06-14T00:01:30.670Z,16.20
2023-06-14T00:01:46.606Z,16.20
2023-06-14T00:01:59.276Z,16.19
2023-06-14T00:02:12.932Z,16.20
2023-06-14T00:02:26.159Z,16.19
2023-06-14T00:02:40.214Z,16.19
2023-06-14T00:02:53.065Z,16.20
2023-06-14T00:03:06.080Z,16.19
2023-06-14T00:03:19.303Z,16.19
2023-06-14T00:03:33.179Z,16.19
2023-06-14T00:03:46.971Z,16.20
2023-06-14T00:04:00.214Z,16.19
2023-06-14T00:04:14.119Z,16.18
2023-06-14T00:04:26.962Z,16.19
2023-06-14T00:04:40.469Z,16.17
2023-06-14T00:04:55.454Z,16.17
2023-06-14T00:05:09.017Z,16.17
2023-06-14T00:05:24.372Z,16.17
2023-06-14T00:05:41.942Z,16.16
2023-06-14T00:05:54.514Z,16.17
2023-06-14T00:06:08.179Z,16.16
2023-06-14T00:06:21.081Z,16.16
2023-06-14T00:06:34.909Z,16.17
2023-06-14T00:06:47.676Z,16.16
2023-06-14T00:07:00.687Z,16.16
2023-06-14T00:07:15.099Z,16.16
2023-06-14T00:07:36.515Z,16.16
2023-06-14T00:07:50.409Z,16.15
2023-06-14T00:08:04.539Z,16.15
2023-06-14T00:08:17.162Z,16.15
2023-06-14T00:08:29.784Z,16.17
2023-06-14T00:08:42.504Z,16.16
2023-06-14T00:08:55.365Z,16.15
2023-06-14T00:09:09.655Z,16.16
2023-06-14T00:09:23.232Z,16.15
2023-06-14T00:09:35.968Z,16.16
2023-06-14T00:09:48.558Z,16.16
2023-06-14T00:10:01.395Z,16.15
2023-06-14T00:10:15.783Z,16.16
2023-06-14T00:10:32.237Z,16.15
2023-06-14T00:10:45.041Z,16.16
2023-06-14T00:10:58.611Z,16.16
2023-06-14T00:11:11.308Z,16.15
2023-06-14T00:11:23.890Z,16.15
2023-06-14T00:11:36.878Z,16.15
2023-06-14T00:11:49.529Z,16.15
2023-06-14T00:12:02.253Z,16.15
2023-06-14T00:12:15.402Z,16.15
2023-06-14T00:12:28.040Z,16.14
2023-06-14T00:12:41.687Z,16.14
2023-06-14T00:12:54.311Z,16.14
2023-06-14T00:13:08.401Z,16.13
2023-06-14T00:13:21.494Z,16.13
2023-06-14T00:13:34.312Z,16.13
2023-06-14T00:13:47.376Z,16.13
2023-06-14T00:13:59.955Z,16.14
2023-06-14T00:14:13.665Z,16.13
2023-06-14T00:14:26.396Z,16.12
2023-06-14T00:14:39.049Z,16.12
2023-06-14T00:14:51.678Z,16.13
2023-06-14T00:15:05.018Z,16.13
2023-06-14T00:15:17.844Z,16.13
2023-06-14T00:15:32.129Z,16.12
2023-06-14T00:15:46.091Z,16.12
2023-06-14T00:15:58.696Z,16.10
2023-06-14T00:16:11.605Z,16.12
2023-06-14T00:16:24.421Z,16.13
2023-06-14T00:16:38.288Z,16.11
2023-06-14T00:16:51.075Z,16.12
2023-06-14T00:17:04.067Z,16.12
2023-06-14T00:17:18.174Z,16.12
2023-06-14T00:17:31.429Z,16.12
2023-06-14T00:17:48.624Z,16.13
2023-06-14T00:18:02.020Z,16.12
2023-06-14T00:18:16.095Z,16.12
2023-06-14T00:18:30.660Z,16.12
2023-06-14T00:18:44.548Z,16.12
2023-06-14T00:18:57.329Z,16.12
2023-06-14T00:19:11.291Z,16.10
2023-06-14T00:19:23.968Z,16.11
2023-06-14T00:19:37.786Z,16.11
2023-06-14T00:19:50.656Z,16.11
2023-06-14T00:20:06.381Z,16.11
2023-06-14T00:20:20.386Z,16.11
2023-06-14T00:20:34.597Z,16.11
2023-06-14T00:20:47.744Z,16.10
2023-06-14T00:21:00.421Z,16.10
2023-06-14T00:21:13.422Z,16.09
2023-06-14T00:21:26.278Z,16.09
2023-06-14T00:21:39.348Z,16.10
2023-06-14T00:21:54.094Z,16.10
2023-06-14T00:22:06.944Z,16.10
2023-06-14T00:22:19.672Z,16.10
2023-06-14T00:22:32.890Z,16.10
2023-06-14T00:22:46.509Z,16.10
2023-06-14T00:22:59.408Z,16.09
2023-06-14T00:23:13.298Z,16.09
2023-06-14T00:23:26.495Z,16.09
2023-06-14T00:23:39.338Z,16.09
2023-06-14T00:23:51.932Z,16.08
2023-06-14T00:24:05.730Z,16.09
2023-06-14T00:24:18.415Z,16.09
2023-06-14T00:24:31.197Z,16.09
2023-06-14T00:24:44.316Z,16.10
2023-06-14T00:24:57.907Z,16.09
2023-06-14T00:25:19.842Z,16.08
2023-06-14T00:25:41.146Z,16.08
2023-06-14T00:25:53.773Z,16.09
2023-06-14T00:26:06.361Z,16.08
2023-06-14T00:26:18.961Z,16.08
2023-06-14T00:26:32.630Z,16.08
2023-06-14T00:26:45.364Z,16.08
2023-06-14T00:26:57.948Z,16.08
2023-06-14T00:27:11.078Z,16.08
2023-06-14T00:27:23.780Z,16.07
2023-06-14T00:27:36.571Z,16.08
2023-06-14T00:27:50.357Z,16.08
2023-06-14T00:28:04.063Z,16.08
2023-06-14T00:28:16.719Z,16.07
2023-06-14T00:28:29.549Z,16.08
2023-06-14T00:28:42.333Z,16.08
2023-06-14T00:28:55.326Z,16.09
2023-06-14T00:29:07.891Z,16.08
2023-06-14T00:29:21.537Z,16.08
2023-06-14T00:29:34.143Z,16.07
2023-06-14T00:29:46.767Z,16.08
2023-06-14T00:29:59.579Z,16.06
2023-06-14T00:30:13.208Z,16.07
2023-06-14T00:30:26.755Z,16.06
2023-06-14T00:30:40.414Z,16.07
2023-06-14T00:30:52.991Z,16.05
2023-06-14T00:31:05.535Z,16.07
2023-06-14T00:31:19.694Z,16.07
2023-06-14T00:31:32.372Z,16.05
2023-06-14T00:31:45.057Z,16.05
2023-06-14T00:31:57.671Z,16.05
2023-06-14T00:32:11.901Z,16.05
2023-06-14T00:32:26.840Z,16.03
2023-06-14T00:32:39.672Z,16.05
2023-06-14T00:32:52.947Z,16.03
2023-06-14T00:33:06.328Z,16.02
2023-06-14T00:33:19.962Z,16.02
2023-06-14T00:33:32.624Z,16.01
2023-06-14T00:33:45.500Z,16.01
2023-06-14T00:33:58.150Z,16.01
2023-06-14T00:34:10.757Z,16.01
2023-06-14T00:34:23.409Z,16.00
2023-06-14T00:34:36.073Z,16.00
2023-06-14T00:34:48.696Z,15.99
2023-06-14T00:35:02.223Z,15.99
2023-06-14T00:35:16.295Z,15.98
2023-06-14T00:35:28.973Z,16.00
2023-06-14T00:35:41.682Z,15.97
2023-06-14T00:35:55.120Z,15.98
2023-06-14T00:36:07.816Z,15.97
2023-06-14T00:36:20.545Z,15.98
2023-06-14T00:36:34.193Z,15.97
2023-06-14T00:36:46.749Z,15.97
2023-06-14T00:36:59.735Z,15.97
2023-06-14T00:37:12.291Z,15.96
2023-06-14T00:37:24.949Z,15.96
2023-06-14T00:37:37.558Z,15.96
2023-06-14T00:37:50.290Z,15.96
2023-06-14T00:38:04.142Z,15.96
2023-06-14T00:38:16.739Z,15.95
2023-06-14T00:38:29.384Z,15.96
2023-06-14T00:38:42.088Z,15.95
2023-06-14T00:38:54.667Z,15.94
2023-06-14T00:39:07.287Z,15.94
2023-06-14T00:39:19.918Z,15.93
2023-06-14T00:39:33.794Z,15.93
2023-06-14T00:39:46.414Z,15.93
2023-06-14T00:39:59.178Z,15.93
2023-06-14T00:40:12.074Z,15.91
2023-06-14T00:40:25.612Z,15.92
2023-06-14T00:40:38.185Z,15.90
2023-06-14T00:40:51.230Z,15.90
2023-06-14T00:41:03.827Z,15.90
2023-06-14T00:41:16.454Z,15.88
2023-06-14T00:41:29.977Z,15.89
2023-06-14T00:41:42.590Z,15.89
2023-06-14T00:41:55.484Z,15.88
2023-06-14T00:42:08.406Z,15.88
2023-06-14T00:42:27.108Z,15.87
2023-06-14T00:42:39.907Z,15.87
2023-06-14T00:42:53.503Z,15.87
2023-06-14T00:43:07.106Z,15.86
2023-06-14T00:43:19.976Z,15.86
2023-06-14T00:43:32.718Z,15.86
2023-06-14T00:43:45.277Z,15.86
2023-06-14T00:43:57.998Z,15.85
2023-06-14T00:44:10.653Z,15.85
2023-06-14T00:44:24.852Z,15.85
2023-06-14T00:44:37.481Z,15.85
2023-06-14T00:44:50.078Z,15.85
2023-06-14T00:45:02.774Z,15.85
2023-06-14T00:45:15.444Z,15.85
2023-06-14T00:45:28.037Z,15.85
2023-06-14T00:45:40.712Z,15.86
2023-06-14T00:45:53.306Z,15.86
2023-06-14T00:46:07.060Z,15.86
2023-06-14T00:46:20.486Z,15.85
2023-06-14T00:46:33.253Z,15.85
2023-06-14T00:46:46.962Z,15.85
2023-06-14T00:46:59.931Z,15.85
2023-06-14T00:47:12.570Z,15.85
2023-06-14T00:47:26.124Z,15.86
2023-06-14T00:47:40.935Z,15.86
2023-06-14T00:47:56.441Z,15.86
2023-06-14T00:48:10.656Z,15.87
2023-06-14T00:48:24.105Z,15.86
2023-06-14T00:48:38.582Z,15.86
2023-06-14T00:48:51.769Z,15.87
2023-06-14T00:49:06.018Z,15.86
2023-06-14T00:49:19.847Z,15.86
2023-06-14T00:49:32.881Z,15.85
2023-06-14T00:49:46.845Z,15.86
2023-06-14T00:50:01.536Z,15.85
2023-06-14T00:50:16.154Z,15.85
2023-06-14T00:50:30.828Z,15.85
2023-06-14T00:50:46.932Z,15.85
2023-06-14T00:51:02.209Z,15.84
2023-06-14T00:51:14.804Z,15.84
2023-06-14T00:51:28.716Z,15.84
2023-06-14T00:51:41.355Z,15.84
2023-06-14T00:51:53.935Z,15.84
2023-06-14T00:52:07.637Z,15.82
2023-06-14T00:52:21.713Z,15.82
2023-06-14T00:52:35.715Z,15.83
2023-06-14T00:52:48.446Z,15.82
2023-06-14T00:53:02.246Z,15.82
2023-06-14T00:53:16.348Z,15.81
2023-06-14T00:53:29.109Z,15.81
2023-06-14T00:53:47.238Z,15.80
2023-06-14T00:53:59.854Z,15.80
2023-06-14T00:54:12.597Z,15.80
2023-06-14T00:54:25.537Z,15.81
2023-06-14T00:54:38.144Z,15.80
2023-06-14T00:54:51.345Z,15.80
2023-06-14T00:55:04.640Z,15.80
2023-06-14T00:55:18.413Z,15.79
2023-06-14T00:55:31.297Z,15.79
2023-06-14T00:55:43.974Z,15.79
2023-06-14T00:55:56.626Z,15.79
2023-06-14T00:56:09.200Z,15.79
2023-06-14T00:56:22.066Z,15.79
2023-06-14T00:56:36.521Z,15.79
2023-06-14T00:56:50.220Z,15.79
2023-06-14T00:57:02.867Z,15.79
2023-06-14T00:57:15.556Z,15.79
2023-06-14T00:57:28.615Z,15.78
2023-06-14T00:57:42.842Z,15.79
2023-06-14T00:57:55.874Z,15.79
2023-06-14T00:58:09.975Z,15.78
2023-06-14T00:58:24.778Z,15.77
2023-06-14T00:58:37.395Z,15.78
2023-06-14T00:58:52.193Z,15.78
2023-06-14T00:59:05.227Z,15.78
2023-06-14T00:59:17.865Z,15.77
2023-06-14T00:59:30.548Z,15.77
2023-06-14T00:59:44.832Z,15.77
2023-06-14T00:59:57.474Z,15.77
2023-06-14T01:00:13.430Z,15.77
2023-06-14T01:00:26.342Z,15.77
2023-06-14T01:00:39.043Z,15.77
2023-06-14T01:00:52.429Z,15.77
2023-06-14T01:01:05.285Z,15.76
2023-06-14T01:01:19.116Z,15.76
2023-06-14T01:01:33.919Z,15.76
2023-06-14T01:01:46.735Z,15.76
2023-06-14T01:01:59.907Z,15.76
2023-06-14T01:02:13.074Z,15.76
2023-06-14T01:02:25.906Z,15.75
2023-06-14T01:02:39.101Z,15.76
2023-06-14T01:02:52.011Z,15.76
2023-06-14T01:03:06.027Z,15.76
2023-06-14T01:03:20.700Z,15.75
2023-06-14T01:03:33.552Z,15.75
2023-06-14T01:03:46.985Z,15.76
2023-06-14T01:03:59.784Z,15.76
2023-06-14T01:04:12.665Z,15.75
2023-06-14T01:04:25.587Z,15.76
2023-06-14T01:04:40.177Z,15.76
2023-06-14T01:04:53.595Z,15.75
2023-06-14T01:05:09.006Z,15.76
2023-06-14T01:05:23.099Z,15.76
2023-06-14T01:05:36.019Z,15.75
2023-06-14T01:05:49.821Z,15.75
2023-06-14T01:06:15.628Z,15.76
2023-06-14T01:06:34.875Z,15.75
2023-06-14T01:07:04.197Z,15.76
2023-06-14T01:07:27.959Z,15.76
2023-06-14T01:07:52.886Z,15.76
2023-06-14T01:08:21.622Z,15.76
2023-06-14T01:08:49.471Z,15.76
2023-06-14T01:09:10.985Z,15.75
2023-06-14T01:09:32.192Z,15.73
2023-06-14T01:09:53.258Z,15.73
2023-06-14T01:10:33.732Z,15.72
2023-06-14T01:10:54.259Z,15.71
2023-06-14T01:11:12.097Z,15.70
2023-06-14T01:11:33.111Z,15.69
2023-06-14T01:11:52.833Z,15.69
2023-06-14T01:12:13.920Z,15.67
2023-06-14T01:12:33.377Z,15.68
2023-06-14T01:12:54.124Z,15.67
2023-06-14T01:13:12.216Z,15.66
2023-06-14T01:13:30.439Z,15.66
2023-06-14T01:13:47.955Z,15.65
2023-06-14T01:14:03.498Z,15.64
2023-06-14T01:14:17.884Z,15.66
2023-06-14T01:14:32.791Z,15.65
2023-06-14T01:14:47.398Z,15.65
2023-06-14T01:15:02.183Z,15.65
2023-06-14T01:15:16.664Z,15.64
2023-06-14T01:15:31.513Z,15.64
2023-06-14T01:15:45.546Z,15.64
2023-06-14T01:15:58.433Z,15.64
2023-06-14T01:16:11.749Z,15.64
2023-06-14T01:16:25.176Z,15.64
2023-06-14T01:16:40.823Z,15.64
2023-06-14T01:16:54.437Z,15.64
2023-06-14T01:17:16.474Z,15.63
2023-06-14T01:17:32.991Z,15.63
2023-06-14T01:17:46.883Z,15.62
2023-06-14T01:18:04.377Z,15.62
2023-06-14T01:18:19.452Z,15.62
2023-06-14T01:18:33.431Z,15.60
2023-06-14T01:18:49.274Z,15.60
2023-06-14T01:19:03.356Z,15.60
2023-06-14T01:19:17.243Z,15.59
2023-06-14T01:19:32.865Z,15.59
2023-06-14T01:19:46.802Z,15.58
2023-06-14T01:20:00.782Z,15.58
2023-06-14T01:20:15.949Z,15.57
2023-06-14T01:20:32.009Z,15.57
2023-06-14T01:20:46.163Z,15.56
2023-06-14T01:20:59.869Z,15.56
2023-06-14T01:21:21.875Z,15.55
2023-06-14T01:21:42.810Z,15.54
2023-06-14T01:21:56.421Z,15.54
2023-06-14T01:22:09.406Z,15.54
2023-06-14T01:22:22.179Z,15.53
2023-06-14T01:22:36.563Z,15.52
2023-06-14T01:22:54.901Z,15.51
2023-06-14T01:23:07.666Z,15.50
2023-06-14T01:23:21.472Z,15.50
2023-06-14T01:23:34.518Z,15.49
2023-06-14T01:23:54.119Z,15.49
2023-06-14T01:24:08.455Z,15.49
2023-06-14T01:24:24.773Z,15.50
2023-06-14T01:24:37.816Z,15.49
2023-06-14T01:24:51.625Z,15.49
2023-06-14T01:25:05.918Z,15.49
2023-06-14T01:25:21.824Z,15.49
2023-06-14T01:25:36.908Z,15.49
2023-06-14T01:25:53.607Z,15.50
2023-06-14T01:26:06.734Z,15.50
2023-06-14T01:26:19.738Z,15.49
2023-06-14T01:26:32.490Z,15.49
2023-06-14T01:26:47.186Z,15.49
2023-06-14T01:27:00.828Z,15.50
2023-06-14T01:27:16.928Z,15.50
2023-06-14T01:27:29.925Z,15.50
2023-06-14T01:27:42.909Z,15.49
2023-06-14T01:28:01.070Z,15.50
2023-06-14T01:28:17.586Z,15.49
2023-06-14T01:28:34.764Z,15.50
2023-06-14T01:28:49.642Z,15.48
2023-06-14T01:29:03.066Z,15.49
2023-06-14T01:29:18.841Z,15.48
2023-06-14T01:29:34.052Z,15.48
2023-06-14T01:29:47.110Z,15.48
2023-06-14T01:30:00.680Z,15.47
2023-06-14T01:30:14.336Z,15.47
2023-06-14T01:30:29.243Z,15.46
2023-06-14T01:30:46.365Z,15.47
2023-06-14T01:31:05.217Z,15.47
2023-06-14T01:31:22.817Z,15.47
2023-06-14T01:31:42.681Z,15.47
2023-06-14T01:31:56.886Z,15.46
2023-06-14T01:32:09.770Z,15.45
2023-06-14T01:32:22.450Z,15.45
2023-06-14T01:32:35.148Z,15.44
2023-06-14T01:32:49.030Z,15.45
2023-06-14T01:33:02.257Z,15.44
2023-06-14T01:33:17.028Z,15.44
2023-06-14T01:33:31.289Z,15.43
2023-06-14T01:33:45.117Z,15.44
2023-06-14T01:33:57.797Z,15.44
2023-06-14T01:34:11.104Z,15.43
2023-06-14T01:34:23.791Z,15.44
2023-06-14T01:34:36.474Z,15.43
2023-06-14T01:34:50.113Z,15.44
2023-06-14T01:35:02.856Z,15.42
2023-06-14T01:35:15.826Z,15.42
2023-06-14T01:35:28.541Z,15.43
2023-06-14T01:35:41.989Z,15.42
2023-06-14T01:35:56.303Z,15.42
2023-06-14T01:36:11.475Z,15.42
2023-06-14T01:36:29.213Z,15.42
2023-06-14T01:36:44.197Z,15.40
2023-06-14T01:36:57.503Z,15.40
2023-06-14T01:37:11.591Z,15.40
2023-06-14T01:37:24.758Z,15.39
2023-06-14T01:37:37.796Z,15.39
2023-06-14T01:37:51.380Z,15.39
2023-06-14T01:38:08.487Z,15.38
2023-06-14T01:38:23.312Z,15.38
2023-06-14T01:38:37.431Z,15.37
2023-06-14T01:38:52.044Z,15.37
2023-06-14T01:39:06.615Z,15.36
2023-06-14T01:39:19.787Z,15.35
2023-06-14T01:39:33.418Z,15.36
2023-06-14T01:39:46.329Z,15.35
2023-06-14T01:40:00.558Z,15.34
2023-06-14T01:40:16.144Z,15.34
2023-06-14T01:40:29.468Z,15.33
2023-06-14T01:40:44.019Z,15.31
2023-06-14T01:40:59.259Z,15.31
2023-06-14T01:41:13.118Z,15.29
2023-06-14T01:41:26.540Z,15.29
2023-06-14T01:41:40.851Z,15.28
2023-06-14T01:41:54.005Z,15.28
2023-06-14T01:42:08.029Z,15.28
2023-06-14T01:42:21.977Z,15.28
2023-06-14T01:42:37.125Z,15.27
2023-06-14T01:42:51.367Z,15.27
2023-06-14T01:43:06.416Z,15.26
2023-06-14T01:43:20.039Z,15.27
2023-06-14T01:43:34.046Z,15.26
2023-06-14T01:43:48.103Z,15.26
2023-06-14T01:44:02.231Z,15.26
2023-06-14T01:44:17.421Z,15.26
2023-06-14T01:44:31.345Z,15.25
2023-06-14T01:44:45.340Z,15.25
2023-06-14T01:44:58.400Z,15.25
2023-06-14T01:45:12.583Z,15.25
2023-06-14T01:45:25.262Z,15.26
2023-06-14T01:45:39.025Z,15.25
2023-06-14T01:45:55.226Z,15.24
2023-06-14T01:46:09.791Z,15.24
2023-06-14T01:46:22.955Z,15.23
2023-06-14T01:46:36.471Z,15.23
2023-06-14T01:46:49.756Z,15.23
2023-06-14T01:47:02.437Z,15.23
2023-06-14T01:47:16.053Z,15.23
2023-06-14T01:47:29.856Z,15.22
2023-06-14T01:47:43.063Z,15.23
2023-06-14T01:47:56.422Z,15.22
2023-06-14T01:48:09.823Z,15.22
2023-06-14T01:48:22.727Z,15.22
2023-06-14T01:48:35.966Z,15.22
2023-06-14T01:48:50.052Z,15.21
2023-06-14T01:49:03.327Z,15.21
2023-06-14T01:49:16.017Z,15.20
2023-06-14T01:49:28.701Z,15.19
2023-06-14T01:49:41.386Z,15.20
2023-06-14T01:49:53.982Z,15.19
2023-06-14T01:50:07.557Z,15.20
2023-06-14T01:50:22.396Z,15.18
2023-06-14T01:50:35.614Z,15.19
2023-06-14T01:50:49.554Z,15.18
2023-06-14T01:51:02.384Z,15.18
2023-06-14T01:51:15.211Z,15.17
2023-06-14T01:51:27.753Z,15.16
2023-06-14T01:51:40.681Z,15.16
2023-06-14T01:51:54.273Z,15.16
2023-06-14T01:52:07.509Z,15.17
2023-06-14T01:52:20.683Z,15.15
2023-06-14T01:52:33.298Z,15.14
2023-06-14T01:52:45.907Z,15.15
2023-06-14T01:52:59.022Z,15.14
2023-06-14T01:53:12.968Z,15.14
2023-06-14T01:53:25.599Z,15.13
2023-06-14T01:53:39.183Z,15.13
2023-06-14T01:53:51.782Z,15.12
2023-06-14T01:54:04.480Z,15.12
2023-06-14T01:54:17.184Z,15.12
2023-06-14T01:54:30.378Z,15.11
2023-06-14T01:54:43.547Z,15.11
2023-06-14T01:54:56.190Z,15.11
2023-06-14T01:55:10.947Z,15.11
2023-06-14T01:55:23.550Z,15.11
2023-06-14T01:55:38.483Z,15.10
2023-06-14T01:55:51.079Z,15.11
2023-06-14T01:56:04.572Z,15.10
2023-06-14T01:56:18.219Z,15.10
2023-06-14T01:56:31.037Z,15.11
2023-06-14T01:56:43.629Z,15.11
2023-06-14T01:56:56.292Z,15.11
2023-06-14T01:57:09.216Z,15.12
2023-06-14T01:57:22.684Z,15.12
2023-06-14T01:57:35.254Z,15.12
2023-06-14T01:57:47.858Z,15.11
2023-06-14T01:58:01.419Z,15.13
2023-06-14T01:58:14.460Z,15.13
2023-06-14T01:58:27.140Z,15.13
2023-06-14T01:58:40.636Z,15.13
2023-06-14T01:58:54.802Z,15.12
2023-06-14T01:59:07.354Z,15.13
2023-06-14T01:59:20.944Z,15.14
2023-06-14T01:59:36.058Z,15.13
2023-06-14T01:59:49.622Z,15.14
2023-06-14T02:00:02.269Z,15.14
2023-06-14T02:00:17.455Z,15.14
2023-06-14T02:00:30.342Z,15.14
2023-06-14T02:00:44.256Z,15.15
2023-06-14T02:00:57.953Z,15.14
2023-06-14T02:01:12.664Z,15.15
2023-06-14T02:01:25.741Z,15.16
2023-06-14T02:01:38.379Z,15.16
2023-06-14T02:01:51.405Z,15.17
2023-06-14T02:02:04.790Z,15.16
2023-06-14T02:02:17.549Z,15.17
2023-06-14T02:02:30.110Z,15.17
2023-06-14T02:02:44.118Z,15.17
2023-06-14T02:02:56.878Z,15.18
2023-06-14T02:03:09.744Z,15.17
2023-06-14T02:03:22.416Z,15.18
2023-06-14T02:03:35.482Z,15.17
2023-06-14T02:03:49.220Z,15.17
2023-06-14T02:04:01.831Z,15.17
2023-06-14T02:04:14.537Z,15.18
2023-06-14T02:04:28.131Z,15.17
2023-06-14T02:04:40.894Z,15.18
2023-06-14T02:04:53.536Z,15.16
2023-06-14T02:05:06.582Z,15.16
2023-06-14T02:05:20.209Z,15.16
2023-06-14T02:05:32.924Z,15.17
2023-06-14T02:05:45.593Z,15.16
2023-06-14T02:05:59.447Z,15.16
2023-06-14T02:06:13.503Z,15.17
2023-06-14T02:06:28.185Z,15.16
2023-06-14T02:06:41.013Z,15.17
2023-06-14T02:06:53.632Z,15.16
2023-06-14T02:07:06.658Z,15.16
2023-06-14T02:07:19.430Z,15.16
2023-06-14T02:07:32.172Z,15.16
2023-06-14T02:07:45.791Z,15.16
2023-06-14T02:07:58.765Z,15.17
2023-06-14T02:08:12.854Z,15.15
2023-06-14T02:08:25.526Z,15.16
2023-06-14T02:08:38.569Z,15.17
2023-06-14T02:08:51.197Z,15.16
2023-06-14T02:09:05.101Z,15.16
2023-06-14T02:09:18.565Z,15.17
2023-06-14T02:09:31.123Z,15.16
2023-06-14T02:09:43.734Z,15.16
2023-06-14T02:09:56.326Z,15.16
2023-06-14T02:10:09.408Z,15.16
2023-06-14T02:10:22.139Z,15.17
2023-06-14T02:10:36.925Z,15.17
2023-06-14T02:10:49.668Z,15.16
2023-06-14T02:11:02.266Z,15.16
2023-06-14T02:11:14.950Z,15.16
2023-06-14T02:11:28.189Z,15.16
2023-06-14T02:11:40.773Z,15.16
2023-06-14T02:11:53.372Z,15.16
2023-06-14T02:12:06.725Z,15.16
2023-06-14T02:12:20.411Z,15.17
2023-06-14T02:12:33.048Z,15.16
2023-06-14T02:12:45.747Z,15.15
2023-06-14T02:12:58.390Z,15.15
2023-06-14T02:13:11.101Z,15.15
2023-06-14T02:13:23.816Z,15.15
2023-06-14T02:13:36.449Z,15.15
2023-06-14T02:13:49.451Z,15.14
2023-06-14T02:14:03.133Z,15.15
2023-06-14T02:14:15.898Z,15.14
2023-06-14T02:14:28.665Z,15.15
2023-06-14T02:14:41.304Z,15.14
2023-06-14T02:14:54.135Z,15.14
2023-06-14T02:15:08.155Z,15.14
2023-06-14T02:15:20.996Z,15.14
2023-06-14T02:15:36.738Z,15.13
2023-06-14T02:15:52.447Z,15.14
2023-06-14T02:16:05.477Z,15.12
2023-06-14T02:16:21.326Z,15.13
2023-06-14T02:16:37.068Z,15.12
2023-06-14T02:16:50.445Z,15.11
2023-06-14T02:17:04.100Z,15.11
2023-06-14T02:17:17.150Z,15.10
2023-06-14T02:17:29.783Z,15.09
2023-06-14T02:17:42.895Z,15.10
2023-06-14T02:17:55.585Z,15.09
2023-06-14T02:18:09.309Z,15.08
2023-06-14T02:18:23.558Z,15.07
2023-06-14T02:18:36.290Z,15.08
2023-06-14T02:18:49.562Z,15.06
2023-06-14T02:19:02.483Z,15.05
2023-06-14T02:19:15.105Z,15.06
2023-06-14T02:19:28.238Z,15.06
2023-06-14T02:19:41.623Z,15.05
2023-06-14T02:19:55.251Z,15.04
2023-06-14T02:20:09.567Z,15.05
2023-06-14T02:20:22.239Z,15.05
2023-06-14T02:20:34.896Z,15.05
2023-06-14T02:20:47.503Z,15.04
2023-06-14T02:21:00.140Z,15.04
2023-06-14T02:21:14.067Z,15.05
2023-06-14T02:21:27.924Z,15.04
2023-06-14T02:21:40.501Z,15.04
2023-06-14T02:21:53.344Z,15.05
2023-06-14T02:22:06.202Z,15.05
2023-06-14T02:22:19.018Z,15.04
2023-06-14T02:22:32.503Z,15.05
2023-06-14T02:22:45.536Z,15.04
2023-06-14T02:22:58.693Z,15.04
2023-06-14T02:23:13.732Z,15.05
2023-06-14T02:23:26.385Z,15.02
2023-06-14T02:23:38.977Z,15.03
2023-06-14T02:23:51.631Z,15.03
2023-06-14T02:24:04.597Z,15.02
2023-06-14T02:24:17.310Z,15.02
2023-06-14T02:24:30.998Z,15.01
2023-06-14T02:24:43.681Z,15.01
2023-06-14T02:25:02.124Z,15.00
2023-06-14T02:25:16.577Z,15.02
2023-06-14T02:25:29.399Z,15.01
2023-06-14T02:25:44.262Z,15.02
2023-06-14T02:25:57.534Z,15.02
2023-06-14T02:26:10.358Z,15.02
2023-06-14T02:26:23.724Z,15.01
2023-06-14T02:26:36.324Z,15.03
2023-06-14T02:26:49.493Z,15.02
2023-06-14T02:27:02.589Z,15.02
2023-06-14T02:27:15.513Z,15.01
2023-06-14T02:27:28.097Z,15.01
2023-06-14T02:27:41.672Z,14.99
2023-06-14T02:27:54.606Z,15.01
2023-06-14T02:28:07.474Z,14.99
2023-06-14T02:28:20.105Z,14.99
2023-06-14T02:28:32.705Z,14.99
2023-06-14T02:28:45.242Z,14.99
2023-06-14T02:28:58.117Z,15.00
2023-06-14T02:29:13.504Z,14.99
2023-06-14T02:29:27.125Z,14.99
2023-06-14T02:29:39.861Z,14.98
2023-06-14T02:29:52.587Z,14.99
2023-06-14T02:30:07.015Z,15.00
2023-06-14T02:30:19.664Z,15.01
2023-06-14T02:30:32.202Z,15.00
2023-06-14T02:30:46.103Z,15.00
2023-06-14T02:30:58.704Z,15.01
2023-06-14T02:31:11.753Z,14.99
2023-06-14T02:31:24.534Z,14.99
2023-06-14T02:31:37.378Z,14.99
2023-06-14T02:31:50.801Z,15.00
2023-06-14T02:32:04.144Z,15.02
2023-06-14T02:32:18.675Z,15.03
2023-06-14T02:32:31.305Z,15.02
2023-06-14T02:32:44.527Z,15.02
2023-06-14T02:32:58.022Z,15.03
2023-06-14T02:33:13.676Z,15.03
2023-06-14T02:33:26.468Z,15.04
2023-06-14T02:33:39.227Z,15.03
2023-06-14T02:33:52.979Z,15.04
2023-06-14T02:34:05.671Z,15.04
2023-06-14T02:34:19.053Z,15.04
2023-06-14T02:34:31.733Z,15.04
2023-06-14T02:34:44.611Z,15.04
2023-06-14T02:34:58.335Z,15.05
2023-06-14T02:35:11.239Z,15.04
2023-06-14T02:35:27.322Z,15.05
2023-06-14T02:35:40.969Z,15.05
2023-06-14T02:35:54.715Z,15.06
2023-06-14T02:36:07.501Z,15.05
2023-06-14T02:36:20.409Z,15.05
2023-06-14T02:36:33.318Z,15.05
2023-06-14T02:36:45.881Z,15.05
2023-06-14T02:36:59.479Z,15.06
2023-06-14T02:37:14.147Z,15.05
2023-06-14T02:37:26.950Z,15.05
2023-06-14T02:37:39.550Z,15.06
2023-06-14T02:37:52.374Z,15.06
2023-06-14T02:38:04.900Z,15.06
2023-06-14T02:38:19.882Z,15.06
2023-06-14T02:38:33.077Z,15.06
2023-06-14T02:38:46.419Z,15.06
2023-06-14T02:38:58.992Z,15.04
2023-06-14T02:39:12.086Z,15.06
2023-06-14T02:39:24.781Z,15.05
2023-06-14T02:39:37.754Z,15.06
2023-06-14T02:39:51.299Z,15.06
2023-06-14T02:40:04.885Z,15.06
2023-06-14T02:40:18.012Z,15.06
2023-06-14T02:40:30.856Z,15.05
2023-06-14T02:40:43.705Z,15.05
2023-06-14T02:40:56.424Z,15.05
2023-06-14T02:41:09.077Z,15.05
2023-06-14T02:41:21.708Z,15.06
2023-06-14T02:41:35.302Z,15.05
2023-06-14T02:41:48.033Z,15.05
2023-06-14T02:42:00.714Z,15.05
2023-06-14T02:42:13.526Z,15.05
2023-06-14T02:42:26.129Z,15.04
2023-06-14T02:42:38.710Z,15.03
2023-06-14T02:42:51.333Z,15.04
2023-06-14T02:43:03.917Z,15.03
2023-06-14T02:43:18.561Z,15.03
2023-06-14T02:43:32.186Z,15.03
2023-06-14T02:43:44.848Z,15.03
2023-06-14T02:43:59.764Z,15.03
2023-06-14T02:44:13.946Z,15.03
2023-06-14T02:44:28.031Z,15.03
2023-06-14T02:44:40.993Z,15.03
2023-06-14T02:44:53.594Z,15.01
2023-06-14T02:45:08.632Z,15.01
2023-06-14T02:45:22.205Z,15.01
2023-06-14T02:45:34.886Z,15.00
2023-06-14T02:45:47.459Z,14.99
2023-06-14T02:46:00.236Z,14.99
2023-06-14T02:46:12.802Z,14.99
2023-06-14T02:46:25.684Z,14.98
2023-06-14T02:46:39.236Z,14.99
2023-06-14T02:46:51.797Z,14.97
2023-06-14T02:47:05.091Z,14.97
2023-06-14T02:47:17.722Z,14.97
2023-06-14T02:47:31.203Z,14.98
2023-06-14T02:47:44.116Z,14.98
2023-06-14T02:47:57.030Z,14.97
2023-06-14T02:48:11.032Z,14.98
2023-06-14T02:48:24.021Z,14.98
2023-06-14T02:48:36.726Z,14.97
2023-06-14T02:48:49.478Z,14.97
2023-06-14T02:49:02.199Z,14.96
2023-06-14T02:49:15.388Z,14.97
2023-06-14T02:49:28.040Z,14.96
2023-06-14T02:49:40.913Z,14.97
2023-06-14T02:49:54.489Z,14.96
2023-06-14T02:50:08.965Z,14.97
2023-06-14T02:50:22.708Z,14.95
2023-06-14T02:50:35.330Z,14.96
2023-06-14T02:50:48.210Z,14.95
2023-06-14T02:51:00.916Z,14.95
2023-06-14T02:51:13.746Z,14.95
2023-06-14T02:51:26.775Z,14.95
2023-06-14T02:51:39.396Z,14.95
2023-06-14T02:51:53.164Z,14.95
2023-06-14T02:52:06.343Z,14.95
2023-06-14T02:52:19.160Z,14.94
2023-06-14T02:52:34.474Z,14.96
2023-06-14T02:52:47.229Z,14.94
2023-06-14T02:52:59.805Z,14.94
2023-06-14T02:53:13.527Z,14.94
2023-06-14T02:53:27.474Z,14.94
2023-06-14T02:53:40.108Z,14.93
2023-06-14T02:53:52.676Z,14.92
2023-06-14T02:54:05.486Z,14.92
2023-06-14T02:54:18.086Z,14.93
2023-06-14T02:54:31.674Z,14.94
2023-06-14T02:54:44.316Z,14.94
2023-06-14T02:54:56.908Z,14.94
2023-06-14T02:55:10.885Z,14.93
2023-06-14T02:55:23.650Z,14.97
2023-06-14T02:55:40.855Z,14.98
2023-06-14T02:55:53.847Z,14.98
2023-06-14T02:56:06.872Z,14.98
2023-06-14T02:56:20.549Z,14.99
2023-06-14T02:56:33.132Z,14.98
2023-06-14T02:56:45.799Z,14.97
2023-06-14T02:56:59.344Z,14.97
2023-06-14T02:57:12.420Z,14.98
2023-06-14T02:57:24.984Z,14.98
2023-06-14T02:57:37.915Z,14.98
2023-06-14T02:57:50.697Z,14.98
2023-06-14T02:58:03.437Z,14.98
2023-06-14T02:58:17.079Z,14.98
2023-06-14T02:58:29.730Z,14.97